Garland, Texas
Current Conditions -  °F | °C
As of 6:47 PM on Saturday 22 Nov 2014 (Local Time) from KADS Reporting Station
Moderate Rain Moderate Rain  
Wind Chill: 61°   Ceiling: 700
Heat Index: 61°   Visibility: 4mi
Dew Point: 59°   Wind: 8mph
Humidity: 94%   Direction: 200°SSW
Pressure: 29.89"   Gusts: NA
Location:  32.91°N, 96.64°W
Report Text: KADS 230047Z 20007KT 4SM RA OVC007 16/15 A2989
Loading
Personal Weather Stations






























Interactive Weather Map New forecast layout! Learn more

10-Day Weather Forecast

Advertisements
Track Severe Weather on mobile